createdAt,value
2017-09-27T00:00:09.766Z,99.90
2017-09-27T00:02:37.294Z,99.90
2017-09-27T00:05:04.835Z,99.90
2017-09-27T00:07:32.377Z,99.90
2017-09-27T00:10:00.699Z,99.90
2017-09-27T00:12:28.218Z,99.90
2017-09-27T00:14:55.755Z,99.90
2017-09-27T00:17:23.270Z,99.90
2017-09-27T00:19:51.576Z,99.90
2017-09-27T00:22:19.095Z,99.90
2017-09-27T00:24:46.630Z,99.90
2017-09-27T00:27:14.153Z,99.90
2017-09-27T00:29:41.694Z,99.90
2017-09-27T00:32:09.227Z,99.90
2017-09-27T00:34:36.770Z,99.90
2017-09-27T00:37:04.290Z,99.90
2017-09-27T00:39:31.832Z,99.90
2017-09-27T00:42:00.111Z,99.90
2017-09-27T00:44:27.647Z,99.90
2017-09-27T00:46:55.178Z,99.90
2017-09-27T00:49:22.714Z,99.90
2017-09-27T00:51:50.234Z,99.90
2017-09-27T00:54:18.544Z,99.90
2017-09-27T00:56:46.058Z,99.90
2017-09-27T00:59:14.434Z,99.90
2017-09-27T01:01:41.956Z,99.90
2017-09-27T01:04:10.261Z,99.90
2017-09-27T01:06:37.774Z,99.90
2017-09-27T01:09:05.327Z,99.90
2017-09-27T01:11:32.849Z,99.90
2017-09-27T01:14:01.146Z,99.90
2017-09-27T01:16:29.428Z,99.90
2017-09-27T01:18:57.730Z,99.90
2017-09-27T01:21:25.256Z,99.90
2017-09-27T01:23:52.800Z,99.90
2017-09-27T01:26:20.332Z,99.90
2017-09-27T01:28:47.885Z,99.90
2017-09-27T01:31:15.414Z,99.90
2017-09-27T01:33:42.973Z,99.90
2017-09-27T01:36:10.507Z,99.90
2017-09-27T01:38:38.027Z,99.90
2017-09-27T01:41:05.579Z,99.90
2017-09-27T01:43:33.104Z,99.90
2017-09-27T01:46:00.646Z,99.90
2017-09-27T01:48:28.171Z,99.90
2017-09-27T01:50:55.703Z,99.90
2017-09-27T01:53:23.218Z,99.90
2017-09-27T01:55:50.766Z,99.90
2017-09-27T01:58:18.286Z,99.90
2017-09-27T02:00:45.823Z,99.90
2017-09-27T02:03:13.342Z,99.90
2017-09-27T02:05:40.883Z,99.90
2017-09-27T02:08:08.403Z,99.90
2017-09-27T02:10:35.939Z,99.90
2017-09-27T02:13:04.230Z,99.90
2017-09-27T02:15:31.775Z,99.90
2017-09-27T02:18:00.068Z,99.90
2017-09-27T02:20:28.383Z,99.90
2017-09-27T02:22:55.901Z,99.90
2017-09-27T02:25:23.456Z,99.90
2017-09-27T02:27:50.983Z,99.90
2017-09-27T02:30:18.531Z,99.90
2017-09-27T02:32:46.054Z,99.90
2017-09-27T02:35:13.664Z,99.90
2017-09-27T02:37:41.187Z,99.90
2017-09-27T02:40:08.727Z,99.90
2017-09-27T02:42:36.255Z,99.90
2017-09-27T02:45:03.803Z,99.90
2017-09-27T02:47:32.097Z,99.90
2017-09-27T02:49:59.643Z,99.90
2017-09-27T02:52:27.167Z,99.90
2017-09-27T02:54:54.719Z,99.90
2017-09-27T02:57:22.248Z,99.90
2017-09-27T02:59:49.807Z,99.90
2017-09-27T03:02:17.336Z,99.90
2017-09-27T03:04:44.890Z,99.90
2017-09-27T03:07:12.433Z,99.90
2017-09-27T03:09:39.975Z,99.90
2017-09-27T03:12:07.490Z,99.90
2017-09-27T03:14:35.031Z,99.90
2017-09-27T03:17:02.557Z,99.90
2017-09-27T03:19:30.882Z,99.90
2017-09-27T03:21:58.412Z,99.90
2017-09-27T03:24:25.958Z,99.90
2017-09-27T03:26:53.486Z,99.90
2017-09-27T03:29:21.791Z,99.90
2017-09-27T03:31:49.352Z,99.90
2017-09-27T03:34:16.908Z,99.90
2017-09-27T03:36:44.439Z,99.90
2017-09-27T03:39:11.983Z,99.90
2017-09-27T03:41:40.295Z,99.90
2017-09-27T03:44:07.820Z,99.90
2017-09-27T03:46:35.366Z,99.90
2017-09-27T03:49:02.895Z,99.90
2017-09-27T03:51:30.448Z,99.90
2017-09-27T03:53:57.984Z,99.90
2017-09-27T03:56:25.523Z,99.90
2017-09-27T03:58:53.104Z,99.90
2017-09-27T04:01:20.666Z,99.90
2017-09-27T04:03:48.196Z,99.90
2017-09-27T04:06:15.752Z,99.90
2017-09-27T04:08:43.282Z,99.90
2017-09-27T04:11:10.832Z,99.90
2017-09-27T04:13:38.361Z,99.90
2017-09-27T04:16:05.957Z,99.90
2017-09-27T04:18:33.483Z,99.90
2017-09-27T04:21:01.043Z,99.90
2017-09-27T04:23:29.335Z,99.90
2017-09-27T04:25:56.879Z,99.90
2017-09-27T04:28:25.169Z,99.90
2017-09-27T04:30:52.722Z,99.90
2017-09-27T04:33:20.238Z,99.90
2017-09-27T04:35:47.788Z,99.90
2017-09-27T04:38:16.107Z,99.90
2017-09-27T04:40:43.659Z,99.90
2017-09-27T04:43:11.953Z,99.90
2017-09-27T04:45:40.409Z,99.90
2017-09-27T04:48:07.939Z,99.90
2017-09-27T04:50:35.489Z,99.90
2017-09-27T04:53:03.015Z,99.90
2017-09-27T04:55:30.557Z,99.90
2017-09-27T04:57:58.083Z,99.90
2017-09-27T05:00:25.630Z,99.90
2017-09-27T05:02:53.153Z,99.90
2017-09-27T05:05:20.703Z,99.90
2017-09-27T05:07:48.317Z,99.90
2017-09-27T05:10:16.112Z,99.90
2017-09-27T05:12:43.633Z,99.90
2017-09-27T05:15:11.183Z,99.90
2017-09-27T05:17:39.474Z,99.90
2017-09-27T05:20:07.783Z,99.90
2017-09-27T05:22:35.308Z,99.90
2017-09-27T05:25:02.851Z,99.90
2017-09-27T05:27:31.141Z,99.90
2017-09-27T05:29:59.450Z,99.90
2017-09-27T05:32:26.975Z,99.90
2017-09-27T05:34:54.519Z,99.90
2017-09-27T05:37:22.043Z,99.90
2017-09-27T05:39:49.572Z,99.90
2017-09-27T05:42:17.890Z,99.90
2017-09-27T05:44:45.422Z,99.90
2017-09-27T05:47:13.735Z,99.90
2017-09-27T05:49:41.267Z,99.90
2017-09-27T05:52:08.810Z,99.90
2017-09-27T05:54:36.330Z,99.90
2017-09-27T05:57:03.875Z,99.90
2017-09-27T05:59:32.166Z,99.90
2017-09-27T06:01:59.711Z,99.90
2017-09-27T06:04:28.007Z,99.90
2017-09-27T06:06:55.559Z,99.90
2017-09-27T06:09:23.093Z,99.90
2017-09-27T06:11:50.650Z,99.90
2017-09-27T06:14:18.175Z,99.90
2017-09-27T06:16:45.725Z,99.90
2017-09-27T06:19:13.250Z,99.90
2017-09-27T06:21:40.795Z,99.90
2017-09-27T06:24:08.330Z,99.90
2017-09-27T06:26:36.645Z,99.90
2017-09-27T06:29:04.175Z,99.90
2017-09-27T06:31:32.482Z,99.90
2017-09-27T06:34:00.010Z,99.90
2017-09-27T06:36:28.328Z,99.90
2017-09-27T06:38:55.859Z,99.90
2017-09-27T06:41:23.404Z,99.90
2017-09-27T06:43:50.936Z,99.90
2017-09-27T06:46:18.480Z,99.90
2017-09-27T06:48:46.007Z,99.90
2017-09-27T06:51:13.563Z,99.90
2017-09-27T06:53:41.087Z,99.90
2017-09-27T06:56:08.648Z,99.90
2017-09-27T06:58:36.182Z,99.90
2017-09-27T07:01:03.723Z,99.90
2017-09-27T07:03:32.019Z,99.90
2017-09-27T07:06:00.332Z,99.90
2017-09-27T07:08:28.620Z,99.90
2017-09-27T07:10:56.935Z,99.90
2017-09-27T07:13:24.459Z,99.90
2017-09-27T07:15:52.019Z,99.90
2017-09-27T07:18:19.543Z,99.90
2017-09-27T07:20:47.855Z,99.90
2017-09-27T07:23:15.393Z,99.90
2017-09-27T07:25:42.939Z,99.90
2017-09-27T07:28:11.231Z,99.90
2017-09-27T07:30:40.292Z,99.90
2017-09-27T07:33:07.828Z,99.90
2017-09-27T07:35:35.389Z,99.90
2017-09-27T07:38:02.915Z,99.90
2017-09-27T07:40:30.468Z,99.90
2017-09-27T07:42:57.996Z,99.90
2017-09-27T07:45:25.519Z,99.90
2017-09-27T07:47:53.067Z,99.90
2017-09-27T07:50:21.358Z,99.90
2017-09-27T07:52:48.910Z,99.90
2017-09-27T07:55:16.439Z,99.90
2017-09-27T07:57:44.746Z,99.90
2017-09-27T08:00:12.271Z,99.90
2017-09-27T08:02:40.582Z,99.90
2017-09-27T08:05:08.882Z,99.90
2017-09-27T08:07:36.432Z,99.90
2017-09-27T08:10:04.727Z,99.90
2017-09-27T08:12:32.272Z,99.90
2017-09-27T08:14:59.804Z,99.90
2017-09-27T08:17:27.341Z,99.90
2017-09-27T08:19:54.865Z,99.90
2017-09-27T08:22:22.416Z,99.90
2017-09-27T08:24:50.703Z,99.90
2017-09-27T08:27:18.247Z,99.90
2017-09-27T08:29:45.775Z,99.90
2017-09-27T08:32:14.098Z,99.90
2017-09-27T08:34:41.631Z,99.90
2017-09-27T08:37:09.188Z,99.90
2017-09-27T08:39:36.719Z,99.90
2017-09-27T08:42:05.031Z,96.50
2017-09-27T08:44:32.560Z,96.40
2017-09-27T08:47:00.114Z,95.20
2017-09-27T08:49:27.645Z,94.90
2017-09-27T08:51:55.199Z,94.40
2017-09-27T08:54:23.496Z,97.80
2017-09-27T08:56:51.104Z,97.80
2017-09-27T08:59:18.632Z,97.90
2017-09-27T09:01:46.188Z,98.10
2017-09-27T09:04:13.719Z,96.00
2017-09-27T09:06:41.266Z,96.80
2017-09-27T09:09:08.795Z,94.40
2017-09-27T09:11:37.111Z,93.00
2017-09-27T09:14:04.637Z,93.00
2017-09-27T09:16:32.179Z,93.30
2017-09-27T09:18:59.766Z,93.00
2017-09-27T09:21:27.313Z,95.70
2017-09-27T09:23:54.842Z,96.10
2017-09-27T09:26:22.391Z,98.00
2017-09-27T09:28:49.918Z,97.70
2017-09-27T09:31:17.468Z,97.50
2017-09-27T09:33:44.996Z,97.00
2017-09-27T09:36:12.547Z,95.50
2017-09-27T09:38:40.835Z,96.30
2017-09-27T09:41:09.145Z,96.30
2017-09-27T09:43:36.670Z,96.60
2017-09-27T09:46:04.214Z,95.80
2017-09-27T09:48:32.519Z,93.50
2017-09-27T09:51:00.079Z,93.50
2017-09-27T09:53:28.374Z,90.00
2017-09-27T09:55:55.903Z,90.00
2017-09-27T09:58:23.454Z,92.30
2017-09-27T10:00:51.754Z,92.20
2017-09-27T10:03:19.308Z,92.20
2017-09-27T10:05:46.839Z,92.20
2017-09-27T10:08:14.388Z,92.60
2017-09-27T10:10:41.970Z,90.00
2017-09-27T10:13:09.516Z,90.50
2017-09-27T10:15:37.047Z,90.00
2017-09-27T10:18:04.599Z,88.20
2017-09-27T10:20:32.890Z,85.70
2017-09-27T10:23:00.436Z,85.60
2017-09-27T10:25:27.985Z,87.30
2017-09-27T10:27:55.534Z,83.90
2017-09-27T10:30:23.071Z,86.50
2017-09-27T10:32:50.625Z,84.90
2017-09-27T10:35:18.155Z,86.50
2017-09-27T10:37:45.700Z,88.80
2017-09-27T10:40:14.046Z,91.00
2017-09-27T10:42:41.588Z,91.00
2017-09-27T10:45:09.128Z,90.40
2017-09-27T10:47:37.451Z,89.60
2017-09-27T10:50:05.045Z,89.60
2017-09-27T10:52:32.591Z,87.40
2017-09-27T10:55:00.883Z,81.40
2017-09-27T10:57:28.667Z,81.30
2017-09-27T10:59:56.199Z,83.80
2017-09-27T11:02:23.757Z,82.60
2017-09-27T11:04:51.288Z,81.70
2017-09-27T11:07:18.844Z,83.40
2017-09-27T11:09:46.376Z,83.40
2017-09-27T11:12:13.927Z,79.10
2017-09-27T11:14:42.214Z,79.10
2017-09-27T11:17:09.758Z,79.10
2017-09-27T11:19:38.052Z,83.70
2017-09-27T11:22:06.364Z,84.90
2017-09-27T11:24:33.895Z,84.80
2017-09-27T11:27:01.454Z,84.00
2017-09-27T11:29:28.989Z,86.30
2017-09-27T11:31:56.539Z,85.30
2017-09-27T11:34:24.831Z,85.30
2017-09-27T11:36:52.385Z,85.30
2017-09-27T11:39:19.915Z,86.30
2017-09-27T11:41:47.467Z,87.30
2017-09-27T11:44:14.994Z,89.00
2017-09-27T11:46:42.547Z,88.80
2017-09-27T11:49:10.843Z,89.40
2017-09-27T11:51:38.387Z,89.40
2017-09-27T11:54:05.911Z,89.70
2017-09-27T11:56:33.460Z,90.30
2017-09-27T11:59:01.003Z,90.70
2017-09-27T12:01:28.526Z,87.90
2017-09-27T12:03:56.068Z,86.20
2017-09-27T12:06:23.594Z,88.20
2017-09-27T12:08:51.147Z,89.00
2017-09-27T12:11:18.675Z,90.50
2017-09-27T12:13:46.998Z,88.00
2017-09-27T12:16:14.527Z,88.70
2017-09-27T12:18:42.076Z,87.70
2017-09-27T12:21:09.614Z,88.20
2017-09-27T12:23:37.162Z,84.30
2017-09-27T12:26:05.454Z,85.70
2017-09-27T12:28:33.003Z,85.70
2017-09-27T12:31:00.528Z,84.20
2017-09-27T12:33:28.075Z,88.00
2017-09-27T12:35:55.607Z,85.60
2017-09-27T12:38:23.149Z,87.10
2017-09-27T12:40:50.679Z,90.80
2017-09-27T12:43:18.234Z,90.10
2017-09-27T12:45:45.761Z,89.20
2017-09-27T12:48:13.315Z,87.10
2017-09-27T12:50:41.608Z,86.80
2017-09-27T12:53:09.171Z,86.80
2017-09-27T12:55:37.472Z,82.60
2017-09-27T12:58:05.023Z,82.50
2017-09-27T13:00:32.547Z,81.60
2017-09-27T13:03:00.100Z,82.00
2017-09-27T13:05:27.628Z,82.10
2017-09-27T13:07:55.955Z,82.80
2017-09-27T13:10:23.498Z,82.70
2017-09-27T13:12:51.054Z,81.60
2017-09-27T13:15:19.352Z,83.60
2017-09-27T13:17:46.902Z,83.50
2017-09-27T13:20:14.427Z,83.90
2017-09-27T13:22:41.980Z,83.60
2017-09-27T13:25:09.515Z,79.90
2017-09-27T13:27:37.070Z,84.20
2017-09-27T13:30:04.599Z,83.20
2017-09-27T13:32:32.148Z,85.80
2017-09-27T13:35:00.471Z,85.10
2017-09-27T13:37:28.019Z,85.10
2017-09-27T13:39:55.546Z,85.00
2017-09-27T13:42:23.094Z,81.10
2017-09-27T13:44:50.619Z,84.40
2017-09-27T13:47:18.163Z,85.70
2017-09-27T13:49:45.696Z,86.20
2017-09-27T13:52:13.251Z,86.80
2017-09-27T13:54:40.792Z,87.40
2017-09-27T13:57:08.342Z,87.50
2017-09-27T13:59:36.635Z,86.40
2017-09-27T14:02:04.878Z,86.40
2017-09-27T14:04:33.166Z,86.50
2017-09-27T14:07:00.690Z,86.50
2017-09-27T14:09:28.231Z,86.40
2017-09-27T14:11:55.758Z,88.60
2017-09-27T14:14:23.309Z,89.60
2017-09-27T14:16:51.599Z,90.00
2017-09-27T14:19:19.144Z,90.00
2017-09-27T14:21:46.674Z,89.40
2017-09-27T14:24:14.214Z,88.70
2017-09-27T14:26:42.504Z,85.90
2017-09-27T14:29:10.818Z,86.10
2017-09-27T14:31:38.352Z,86.10
2017-09-27T14:34:05.896Z,88.00
2017-09-27T14:36:33.422Z,86.80
2017-09-27T14:39:01.742Z,87.70
2017-09-27T14:41:29.278Z,87.70
2017-09-27T14:43:56.837Z,84.90
2017-09-27T14:46:25.127Z,88.00
2017-09-27T14:48:52.667Z,88.10
2017-09-27T14:51:21.016Z,85.00
2017-09-27T14:53:48.578Z,85.00
2017-09-27T14:56:16.110Z,85.20
2017-09-27T14:58:43.665Z,84.20
2017-09-27T15:01:11.196Z,85.00
2017-09-27T15:03:39.506Z,84.70
2017-09-27T15:06:07.038Z,84.70
2017-09-27T15:08:34.584Z,85.60
2017-09-27T15:11:02.121Z,85.40
2017-09-27T15:13:30.435Z,85.40
2017-09-27T15:15:57.971Z,85.30
2017-09-27T15:18:25.524Z,85.70
2017-09-27T15:20:53.047Z,86.90
2017-09-27T15:23:20.596Z,86.90
2017-09-27T15:25:48.122Z,88.10
2017-09-27T15:28:15.664Z,87.20
2017-09-27T15:30:43.205Z,86.10
2017-09-27T15:33:10.755Z,86.70
2017-09-27T15:35:38.279Z,84.30
2017-09-27T15:38:05.835Z,85.90
2017-09-27T15:40:33.368Z,88.40
2017-09-27T15:43:00.917Z,89.30
2017-09-27T15:45:28.449Z,90.30
2017-09-27T15:47:56.779Z,89.60
2017-09-27T15:50:24.314Z,89.60
2017-09-27T15:52:51.859Z,89.10
2017-09-27T15:55:19.382Z,89.20
2017-09-27T15:57:46.931Z,89.20
2017-09-27T16:00:14.458Z,90.10
2017-09-27T16:02:42.783Z,90.60
2017-09-27T16:05:10.307Z,90.70
2017-09-27T16:07:37.859Z,90.40
2017-09-27T16:10:05.393Z,90.20
2017-09-27T16:12:32.938Z,91.00
2017-09-27T16:15:00.502Z,91.60
2017-09-27T16:17:28.031Z,92.10
2017-09-27T16:19:56.332Z,93.40
2017-09-27T16:22:23.860Z,93.40
2017-09-27T16:24:52.161Z,94.30
2017-09-27T16:27:19.679Z,94.20
2017-09-27T16:29:47.217Z,95.00
2017-09-27T16:32:14.735Z,96.20
2017-09-27T16:34:42.283Z,97.50
2017-09-27T16:37:10.587Z,98.20
2017-09-27T16:39:38.125Z,98.10
2017-09-27T16:42:06.419Z,99.90
2017-09-27T16:44:34.727Z,99.90
2017-09-27T16:47:02.269Z,99.90
2017-09-27T16:49:29.813Z,99.90
2017-09-27T16:51:57.343Z,99.90
2017-09-27T16:54:24.921Z,99.90
2017-09-27T16:56:52.440Z,99.90
2017-09-27T16:59:19.982Z,99.90
2017-09-27T17:01:47.510Z,99.90
2017-09-27T17:04:15.055Z,99.90
2017-09-27T17:06:42.577Z,99.90
2017-09-27T17:09:10.883Z,99.90
2017-09-27T17:11:39.178Z,99.90
2017-09-27T17:14:06.727Z,99.90
2017-09-27T17:16:34.256Z,99.90
2017-09-27T17:19:01.814Z,99.90
2017-09-27T17:21:29.339Z,99.90
2017-09-27T17:23:56.874Z,99.90
2017-09-27T17:26:24.395Z,99.90
2017-09-27T17:28:51.931Z,99.90
2017-09-27T17:31:19.464Z,99.90
2017-09-27T17:33:47.010Z,99.90
2017-09-27T17:36:14.536Z,99.90
2017-09-27T17:38:42.083Z,99.90
2017-09-27T17:41:10.369Z,99.90
2017-09-27T17:43:38.681Z,99.90
2017-09-27T17:46:06.210Z,99.90
2017-09-27T17:48:33.747Z,99.90
2017-09-27T17:51:02.034Z,99.90
2017-09-27T17:53:29.571Z,99.90
2017-09-27T17:55:57.103Z,99.90
2017-09-27T17:58:24.649Z,99.90
2017-09-27T18:00:52.942Z,99.90
2017-09-27T18:03:20.505Z,99.90
2017-09-27T18:05:53.684Z,99.90
2017-09-27T18:08:27.027Z,99.90
2017-09-27T18:11:00.169Z,99.90
2017-09-27T18:16:32.906Z,99.90
2017-09-27T18:19:00.459Z,99.90
2017-09-27T18:21:27.986Z,99.90
2017-09-27T18:23:56.297Z,99.90
2017-09-27T18:26:23.818Z,99.90
2017-09-27T18:28:51.354Z,99.90
2017-09-27T18:31:18.876Z,99.90
2017-09-27T18:33:46.428Z,99.90
2017-09-27T18:36:13.957Z,99.90
2017-09-27T18:38:41.551Z,99.90
2017-09-27T18:41:09.076Z,99.90
2017-09-27T18:43:36.623Z,99.90
2017-09-27T18:46:04.147Z,99.90
2017-09-27T18:48:32.454Z,99.90
2017-09-27T18:50:59.980Z,99.90
2017-09-27T18:53:27.523Z,99.90
2017-09-27T18:55:55.047Z,99.90
2017-09-27T18:58:23.380Z,99.90
2017-09-27T19:00:50.906Z,99.90
2017-09-27T19:03:19.190Z,99.90
2017-09-27T19:05:46.732Z,99.90
2017-09-27T19:08:15.025Z,99.90
2017-09-27T19:10:42.567Z,99.90
2017-09-27T19:13:10.092Z,99.90
2017-09-27T19:15:37.631Z,99.90
2017-09-27T19:18:05.164Z,99.90
2017-09-27T19:20:32.713Z,99.90
2017-09-27T19:23:00.230Z,99.90
2017-09-27T19:25:28.535Z,99.90
2017-09-27T19:27:56.061Z,99.90
2017-09-27T19:30:24.375Z,99.90
2017-09-27T19:32:51.894Z,99.90
2017-09-27T19:35:20.208Z,99.90
2017-09-27T19:37:47.735Z,99.90
2017-09-27T19:40:15.280Z,99.90
2017-09-27T19:42:43.579Z,99.90
2017-09-27T19:45:11.119Z,99.90
2017-09-27T19:47:38.648Z,99.90
2017-09-27T19:50:06.198Z,99.90
2017-09-27T19:52:33.723Z,99.90
2017-09-27T19:55:01.267Z,99.90
2017-09-27T19:57:28.791Z,99.90
2017-09-27T19:59:57.106Z,99.90
2017-09-27T20:02:24.642Z,99.90
2017-09-27T20:04:52.187Z,99.90
2017-09-27T20:07:19.711Z,99.90
2017-09-27T20:09:47.256Z,99.90
2017-09-27T20:12:14.783Z,99.90
2017-09-27T20:14:42.343Z,99.90
2017-09-27T20:17:09.867Z,99.90
2017-09-27T20:19:37.430Z,99.90
2017-09-27T20:22:04.966Z,99.90
2017-09-27T20:24:32.495Z,99.90
2017-09-27T20:27:00.044Z,99.90
2017-09-27T20:29:28.326Z,99.90
2017-09-27T20:31:55.871Z,99.90
2017-09-27T20:34:23.434Z,99.90
2017-09-27T20:36:50.970Z,99.90
2017-09-27T20:39:19.259Z,99.90
2017-09-27T20:41:46.806Z,99.90
2017-09-27T20:44:14.330Z,99.90
2017-09-27T20:46:42.635Z,99.90
2017-09-27T20:49:10.155Z,99.90
2017-09-27T20:51:37.703Z,99.90
2017-09-27T20:54:05.228Z,99.90
2017-09-27T20:56:33.514Z,99.90
2017-09-27T20:59:01.060Z,99.90
2017-09-27T21:01:29.351Z,99.90
2017-09-27T21:03:56.896Z,99.90
2017-09-27T21:06:24.415Z,99.90
2017-09-27T21:08:51.954Z,99.90
2017-09-27T21:11:20.243Z,99.90
2017-09-27T21:13:47.786Z,99.90
2017-09-27T21:16:15.302Z,99.90
2017-09-27T21:18:42.851Z,99.90
2017-09-27T21:21:10.375Z,99.90
2017-09-27T21:23:37.931Z,99.90
2017-09-27T21:26:05.456Z,99.90
2017-09-27T21:28:34.720Z,99.90
2017-09-27T21:31:03.035Z,99.90
2017-09-27T21:33:30.550Z,99.90
2017-09-27T21:35:58.859Z,99.90
2017-09-27T21:38:26.391Z,99.90
2017-09-27T21:40:54.724Z,99.90
2017-09-27T21:43:22.247Z,99.90
2017-09-27T21:45:49.790Z,99.90
2017-09-27T21:48:17.320Z,99.90
2017-09-27T21:50:45.631Z,99.90
2017-09-27T21:53:13.159Z,99.90
2017-09-27T21:55:41.477Z,99.90
2017-09-27T21:58:09.001Z,99.90
2017-09-27T22:00:37.307Z,99.90
2017-09-27T22:03:04.871Z,99.90
2017-09-27T22:05:32.387Z,99.90
2017-09-27T22:07:59.932Z,99.90
2017-09-27T22:10:27.451Z,99.90
2017-09-27T22:12:55.765Z,99.90
2017-09-27T22:15:23.290Z,99.90
2017-09-27T22:17:50.843Z,99.90
2017-09-27T22:20:18.379Z,99.90
2017-09-27T22:22:45.910Z,99.90
2017-09-27T22:25:13.452Z,99.90
2017-09-27T22:27:40.979Z,99.90
2017-09-27T22:30:08.530Z,99.90
2017-09-27T22:32:36.053Z,99.90
2017-09-27T22:35:03.604Z,99.90
2017-09-27T22:37:31.127Z,99.90
2017-09-27T22:39:58.735Z,99.90
2017-09-27T22:42:26.259Z,99.90
2017-09-27T22:44:53.792Z,99.90
2017-09-27T22:47:21.340Z,99.90
2017-09-27T22:49:48.877Z,99.90
2017-09-27T22:52:17.183Z,99.90
2017-09-27T22:54:44.703Z,99.90
2017-09-27T22:57:13.006Z,99.90
2017-09-27T22:59:40.527Z,99.90
2017-09-27T23:02:08.064Z,99.90
2017-09-27T23:04:35.583Z,99.90
2017-09-27T23:07:03.123Z,99.90
2017-09-27T23:09:30.657Z,99.90
2017-09-27T23:11:58.206Z,99.90
2017-09-27T23:14:25.734Z,99.90
2017-09-27T23:16:53.264Z,99.90
2017-09-27T23:19:20.803Z,99.90
2017-09-27T23:21:48.328Z,99.90
2017-09-27T23:24:15.884Z,99.90
2017-09-27T23:26:43.404Z,99.90
2017-09-27T23:29:10.943Z,99.90
2017-09-27T23:31:38.473Z,99.90
2017-09-27T23:34:06.021Z,99.90
2017-09-27T23:36:33.539Z,99.90
2017-09-27T23:39:01.640Z,99.90
2017-09-27T23:41:29.160Z,99.90
2017-09-27T23:43:56.686Z,99.90
2017-09-27T23:46:24.236Z,99.90
2017-09-27T23:48:51.762Z,99.90
2017-09-27T23:51:19.311Z,99.90
2017-09-27T23:53:46.829Z,99.90
2017-09-27T23:56:14.370Z,99.90
2017-09-27T23:58:41.886Z,99.90
